M\v Black Rhino — V7TR7 — position and weather

sailwx.info

Track history (hours):
 
Tides and Currents Weather Stations Pressure Air Temp Water Temp Dewpoint Dewpoint Depression Visibility Wind Speed Wind Dir Waves Ship Positions

M\v Black Rhino

Last reported at 2014-Oct-31 13:33 UTC. Time now 2014-Oct-31 13:44 UTC.
Position S 29°43' E 031°07'.

Length 100 m; draft 4.4 m.

Type: Cargo ship. MMSI: 538090408.

Date/timePositionNaut miles runAvg speedWind from/ knotsBaromVisibWave heightAir tempDewpointWater temp
2014-Oct-31 13:33S 29°43' E 031°07'0 0.0
2014-Oct-31 12:33S 29°43' E 031°07'0 0.0
2014-Oct-31 11:33S 29°43' E 031°07'0 0.0
2014-Oct-31 10:33S 29°43' E 031°07'0 0.0
2014-Oct-31 09:33S 29°43' E 031°07'0 0.0
2014-Oct-31 08:33S 29°43' E 031°07'1 0.8
2014-Oct-31 07:33S 29°42' E 031°07'1010.0
2014-Oct-31 06:33S 29°40' E 031°18'1110.8
2014-Oct-31 05:33S 29°32' E 031°27'  
2014-Oct-27 15:31S 29°10' E 031°55'9 8.8
2014-Oct-27 14:28S 29°16' E 031°47'8 9.0
2014-Oct-27 13:32S 29°22' E 031°40'9 8.9
2014-Oct-27 12:33S 29°28' E 031°33'9 9.2
2014-Oct-27 11:34S 29°34' E 031°25'9 9.0
2014-Oct-27 10:33S 29°40' E 031°17'9 8.8
2014-Oct-27 09:33S 29°47' E 031°11'9 8.8
2014-Oct-27 08:33S 29°53' E 031°03'0 0.3
2014-Oct-27 07:29S 29°52' E 031°03'0 0.0
2014-Oct-27 06:29S 29°52' E 031°03'0 0.0
2014-Oct-27 05:29S 29°52' E 031°03'0 0.0
2014-Oct-27 04:29S 29°52' E 031°03'0 0.0
2014-Oct-27 03:29S 29°52' E 031°03'0 0.0
2014-Oct-27 02:29S 29°52' E 031°03'0 0.0
2014-Oct-27 01:29S 29°52' E 031°03'0 0.0
2014-Oct-27 00:23S 29°52' E 031°03'0 0.0
2014-Oct-26 23:29S 29°52' E 031°03'0 0.0
2014-Oct-26 22:29S 29°52' E 031°03'0 0.0
2014-Oct-26 21:29S 29°52' E 031°03'0 0.0
2014-Oct-26 20:29S 29°52' E 031°03'0 0.0
2014-Oct-26 19:29S 29°52' E 031°03'0 0.0
2014-Oct-26 18:29S 29°52' E 031°03'0 0.0
2014-Oct-26 17:29S 29°52' E 031°03'0 0.0
2014-Oct-26 16:29S 29°52' E 031°03'  
Track history (hours):
 
Tides and Currents Weather Stations Pressure Air Temp Water Temp Dewpoint Dewpoint Depression Visibility Wind Speed Wind Dir Waves Ship Positions

M\v Black Rhino

Last reported at 2014-Oct-31 13:33 UTC. Time now 2014-Oct-31 13:44 UTC.
Position S 29°43' E 031°07'.

Length 100 m; draft 4.4 m.

Type: Cargo ship. MMSI: 538090408.

Date/timePositionNaut miles runAvg speedWind from/ knotsBaromVisibWave heightAir tempDewpointWater temp
2014-Oct-31 13:33S 29°43' E 031°07'0 0.0
2014-Oct-31 12:33S 29°43' E 031°07'0 0.0
2014-Oct-31 11:33S 29°43' E 031°07'0 0.0
2014-Oct-31 10:33S 29°43' E 031°07'0 0.0
2014-Oct-31 09:33S 29°43' E 031°07'0 0.0
2014-Oct-31 08:33S 29°43' E 031°07'1 0.8
2014-Oct-31 07:33S 29°42' E 031°07'1010.0
2014-Oct-31 06:33S 29°40' E 031°18'1110.8
2014-Oct-31 05:33S 29°32' E 031°27'  
2014-Oct-27 15:31S 29°10' E 031°55'9 8.8
2014-Oct-27 14:28S 29°16' E 031°47'8 9.0
2014-Oct-27 13:32S 29°22' E 031°40'9 8.9
2014-Oct-27 12:33S 29°28' E 031°33'9 9.2
2014-Oct-27 11:34S 29°34' E 031°25'9 9.0
2014-Oct-27 10:33S 29°40' E 031°17'9 8.8
2014-Oct-27 09:33S 29°47' E 031°11'9 8.8
2014-Oct-27 08:33S 29°53' E 031°03'0 0.3
2014-Oct-27 07:29S 29°52' E 031°03'0 0.0
2014-Oct-27 06:29S 29°52' E 031°03'0 0.0
2014-Oct-27 05:29S 29°52' E 031°03'0 0.0
2014-Oct-27 04:29S 29°52' E 031°03'0 0.0
2014-Oct-27 03:29S 29°52' E 031°03'0 0.0
2014-Oct-27 02:29S 29°52' E 031°03'0 0.0
2014-Oct-27 01:29S 29°52' E 031°03'0 0.0
2014-Oct-27 00:23S 29°52' E 031°03'0 0.0
2014-Oct-26 23:29S 29°52' E 031°03'0 0.0
2014-Oct-26 22:29S 29°52' E 031°03'0 0.0
2014-Oct-26 21:29S 29°52' E 031°03'0 0.0
2014-Oct-26 20:29S 29°52' E 031°03'0 0.0
2014-Oct-26 19:29S 29°52' E 031°03'0 0.0
2014-Oct-26 18:29S 29°52' E 031°03'0 0.0
2014-Oct-26 17:29S 29°52' E 031°03'0 0.0
2014-Oct-26 16:29S 29°52' E 031°03'  

Dump ship's entire track history